Terminal Aerodrome Forecast
Issued by NWS

Home | Current Version | Previous Version | Text Only | Print | Product List | Glossary On
Versions: 1 2 3 4 5 6 7 8 9 10 11 12 13
000
FTUS45 KABQ 272200 AAA
TAFSAF
TAF AMD
KSAF 272220Z 2722/2818 25008KT P6SM SCT080
     FM280100 35007KT P6SM SKC
     FM281000 36013KT P6SM SKC=

USA.gov is the U.S. government's official web portal to all federal, state and local government web resources and services.